Sophie Blue — CRXK3 — position and weather

sailwx.info

Track history (hours):
 
Tides and Currents Weather Stations Pressure Air Temp Water Temp Dewpoint Dewpoint Depression Visibility Wind Speed Wind Dir Waves Ship Positions

Sophie Blue

Last reported at 2015-Aug-31 02:33 UTC. Time now 2015-Aug-31 02:39 UTC.
Position N 43°16' E 006°38'.

; draft 2.7 m.

Type: Other ship. MMSI: 255901270.

Date/timePositionNaut miles runAvg speedWind from/ knotsBaromVisibWave heightAir tempDewpointWater temp
2015-Aug-31 02:33N 43°16' E 006°38'0 0.0
2015-Aug-31 01:33N 43°16' E 006°38'0 0.0
2015-Aug-31 00:33N 43°16' E 006°38'0 0.0
2015-Aug-30 23:31N 43°16' E 006°38'0 0.0
2015-Aug-30 22:33N 43°16' E 006°38'0 0.0
2015-Aug-30 21:33N 43°16' E 006°38'0 0.0
2015-Aug-30 20:33N 43°16' E 006°38'0 0.0
2015-Aug-30 19:33N 43°16' E 006°38'0 0.0
2015-Aug-30 18:33N 43°16' E 006°38'0 0.0
2015-Aug-30 17:33N 43°16' E 006°38'0 0.3
2015-Aug-30 16:33N 43°17' E 006°38'3 3.4
2015-Aug-30 15:32N 43°14' E 006°40'0 0.0
2015-Aug-30 14:33N 43°14' E 006°40'0 0.0
2015-Aug-30 13:33N 43°14' E 006°40'0 0.0
2015-Aug-30 12:33N 43°14' E 006°40'0 0.0
2015-Aug-30 11:33N 43°14' E 006°40'3 3.3
2015-Aug-30 10:33N 43°16' E 006°37'0 0.1
2015-Aug-30 09:30N 43°16' E 006°37'0 0.0
2015-Aug-30 08:27N 43°16' E 006°37'0 0.0
2015-Aug-30 07:12N 43°16' E 006°37'0 0.0
2015-Aug-30 06:30N 43°16' E 006°37'0 0.0
2015-Aug-30 05:21N 43°16' E 006°37'0 0.0
2015-Aug-30 04:27N 43°16' E 006°37'0 0.0
2015-Aug-30 01:06N 43°16' E 006°37'0 0.0
2015-Aug-30 00:30N 43°16' E 006°37'0 0.0
2015-Aug-29 23:18N 43°16' E 006°37'0 0.0
2015-Aug-29 22:30N 43°16' E 006°37'0 0.0
2015-Aug-29 21:30N 43°16' E 006°37'0 0.0
2015-Aug-29 20:30N 43°16' E 006°37'0 0.0
2015-Aug-29 19:33N 43°16' E 006°37'0 0.0
2015-Aug-29 18:30N 43°16' E 006°37'0 0.3
2015-Aug-29 17:33N 43°16' E 006°37'1111.1
2015-Aug-29 16:33N 43°22' E 006°51'1412.4
2015-Aug-29 15:28N 43°30' E 007°06'1112.2
2015-Aug-29 14:33N 43°38' E 007°15'4 3.6
2015-Aug-29 13:33N 43°42' E 007°17'1 1.0
2015-Aug-29 12:33N 43°41' E 007°18'1111.4
2015-Aug-29 11:33N 43°31' E 007°08'1111.6
2015-Aug-29 10:33N 43°25' E 006°55'1212.0
2015-Aug-29 09:33N 43°18' E 006°42'3 0.2
2015-Aug-28 17:33N 43°16' E 006°38'2 2.5
2015-Aug-28 16:33N 43°14' E 006°40'0 0.0
2015-Aug-28 15:33N 43°14' E 006°40'0 0.0
2015-Aug-28 14:29N 43°14' E 006°40'0 0.0
2015-Aug-28 13:30N 43°14' E 006°40'0 0.0
2015-Aug-28 12:28N 43°14' E 006°40'0 0.0
2015-Aug-28 11:33N 43°14' E 006°40'0 0.0
2015-Aug-28 10:33N 43°14' E 006°40'5 4.2
2015-Aug-28 09:27N 43°10' E 006°39'7 8.1
2015-Aug-28 08:34N 43°17' E 006°39'0 0.0
2015-Aug-27 17:33N 43°17' E 006°40'3 3.2
2015-Aug-27 16:33N 43°14' E 006°40'0 0.0
2015-Aug-27 15:33N 43°14' E 006°40'0 0.0
2015-Aug-27 14:33N 43°14' E 006°40'0 0.0
2015-Aug-27 13:33N 43°14' E 006°40'0 0.0
2015-Aug-27 12:33N 43°14' E 006°40'0 0.0
2015-Aug-27 11:33N 43°14' E 006°40'0 0.0
2015-Aug-27 10:32N 43°14' E 006°40'0 0.0
2015-Aug-27 09:33N 43°14' E 006°40'4 3.6
2015-Aug-27 08:33N 43°17' E 006°41'3 2.2
2015-Aug-27 07:24N 43°16' E 006°38'0 0.0
2015-Aug-27 06:30N 43°16' E 006°38'0 0.0
2015-Aug-27 05:18N 43°16' E 006°38'0 0.0
2015-Aug-27 04:33N 43°16' E 006°38'0 0.0
2015-Aug-27 03:33N 43°16' E 006°38'0 0.0
2015-Aug-27 02:33N 43°16' E 006°38'0 0.0
2015-Aug-27 01:33N 43°16' E 006°38'0 0.0
2015-Aug-27 00:33N 43°16' E 006°38'0 0.0
2015-Aug-26 23:33N 43°16' E 006°38'0 0.0
2015-Aug-26 22:33N 43°16' E 006°38'0 0.0
2015-Aug-26 21:33N 43°16' E 006°38'0 0.0
2015-Aug-26 20:33N 43°16' E 006°38'0 0.0
2015-Aug-26 19:33N 43°16' E 006°38'0 0.0
2015-Aug-26 18:33N 43°16' E 006°38'0 0.0
2015-Aug-26 17:33N 43°16' E 006°38'0 0.0
2015-Aug-26 16:33N 43°16' E 006°38'4 3.8
2015-Aug-26 15:33N 43°15' E 006°43'2 2.4
2015-Aug-26 14:33N 43°14' E 006°40'0 0.0
2015-Aug-26 13:33N 43°14' E 006°40'0 0.0
2015-Aug-26 12:33N 43°14' E 006°40'0 0.0
2015-Aug-26 11:33N 43°14' E 006°40'0 0.0
2015-Aug-26 10:33N 43°14' E 006°40'1110.8
2015-Aug-26 09:33N 43°22' E 006°50'1212.2
2015-Aug-26 08:33N 43°32' E 007°00'1 1.4
2015-Aug-26 07:31N 43°33' E 007°01'0 0.0
2015-Aug-26 06:25N 43°33' E 007°01'0 0.0
2015-Aug-26 05:31N 43°33' E 007°01'0 0.0
2015-Aug-26 04:25N 43°33' E 007°01'0 0.0
2015-Aug-26 03:31N 43°33' E 007°01'0 0.0
2015-Aug-26 02:31N 43°33' E 007°01'0 0.0
2015-Aug-26 01:13N 43°33' E 007°01'0 0.0
2015-Aug-25 21:31N 43°33' E 007°01'0 0.0
2015-Aug-25 20:13N 43°33' E 007°01'0 0.0
2015-Aug-25 18:13N 43°33' E 007°01'0 0.0
2015-Aug-25 17:25N 43°33' E 007°01'0 0.0
2015-Aug-25 16:31N 43°33' E 007°01'0 0.0
2015-Aug-25 15:31N 43°33' E 007°01'0 0.0
2015-Aug-25 14:33N 43°33' E 007°01'2 1.8
2015-Aug-25 13:33N 43°31' E 007°02'2 1.5
2015-Aug-25 12:27N 43°31' E 007°04'0 0.1
2015-Aug-25 11:27N 43°31' E 007°04'0 0.0
2015-Aug-25 10:33N 43°31' E 007°04'0 0.0
2015-Aug-25 09:27N 43°31' E 007°04'2 2.2
2015-Aug-25 08:33N 43°31' E 007°01'2 2.0
2015-Aug-25 07:22N 43°33' E 007°01'0 0.0
2015-Aug-25 06:28N 43°33' E 007°01'0 0.0
2015-Aug-25 05:28N 43°33' E 007°01'0 0.0
2015-Aug-25 04:28N 43°33' E 007°01'0 0.0
2015-Aug-25 03:28N 43°33' E 007°01'0 0.0
2015-Aug-25 02:28N 43°33' E 007°01'0 0.0
2015-Aug-25 01:28N 43°33' E 007°01'0 0.0
2015-Aug-25 00:28N 43°33' E 007°01'0 0.0
2015-Aug-24 23:28N 43°33' E 007°01'0 0.0
2015-Aug-24 22:22N 43°33' E 007°01'0 0.0
2015-Aug-24 21:28N 43°33' E 007°01'0 0.0
2015-Aug-24 20:28N 43°33' E 007°01'0 0.0
2015-Aug-24 19:23N 43°33' E 007°01'0 0.0
2015-Aug-24 18:28N 43°33' E 007°01'0 0.0
2015-Aug-24 17:31N 43°33' E 007°01'0 0.0
2015-Aug-24 16:10N 43°33' E 007°01'0 0.0
2015-Aug-24 15:28N 43°33' E 007°01'2 1.9
2015-Aug-24 14:22N 43°31' E 007°01'2 1.9
2015-Aug-24 13:32N 43°31' E 007°03'0 0.0
2015-Aug-24 12:14N 43°31' E 007°03'0 0.0
2015-Aug-24 11:32N 43°31' E 007°03'0 0.0
2015-Aug-24 10:26N 43°31' E 007°03'0 0.0
2015-Aug-24 08:20N 43°31' E 007°03'2 2.2
2015-Aug-24 07:32N 43°32' E 007°01'0 0.3
2015-Aug-24 06:13N 43°33' E 007°01'1 2.2
2015-Aug-24 05:33N 43°32' E 006°60'5 5.1
2015-Aug-24 04:33N 43°30' E 007°06'9 9.2
2015-Aug-24 03:33N 43°35' E 007°16'61 9.8
2015-Aug-23 21:18N 44°10' E 008°26'810.1
2015-Aug-23 20:33N 44°10' E 008°36'9 9.0
2015-Aug-23 19:33N 44°08' E 008°49'1211.4
2015-Aug-23 18:32N 44°13' E 009°03'4 0.3
2015-Aug-23 06:33N 44°15' E 009°07'10 9.6
2015-Aug-23 05:33N 44°11' E 008°55'9 9.4
2015-Aug-23 04:33N 44°07' E 008°44'9 9.4
2015-Aug-23 03:33N 44°02' E 008°32'5410.5
2015-Aug-22 22:23N 43°41' E 007°22'1 1.5
2015-Aug-22 21:31N 43°42' E 007°20'0 0.0
2015-Aug-22 20:07N 43°42' E 007°20'0 0.0
2015-Aug-22 16:31N 43°42' E 007°20'2 0.1
2015-Aug-21 10:21N 43°42' E 007°17'17 8.3
2015-Aug-21 08:15N 43°34' E 007°39'1 1.8
2015-Aug-21 07:34N 43°34' E 007°40'10 9.2
2015-Aug-21 06:27N 43°31' E 007°54'  
Track history (hours):
 
Tides and Currents Weather Stations Pressure Air Temp Water Temp Dewpoint Dewpoint Depression Visibility Wind Speed Wind Dir Waves Ship Positions

Sophie Blue

Last reported at 2015-Aug-31 02:33 UTC. Time now 2015-Aug-31 02:39 UTC.
Position N 43°16' E 006°38'.

; draft 2.7 m.

Type: Other ship. MMSI: 255901270.

Date/timePositionNaut miles runAvg speedWind from/ knotsBaromVisibWave heightAir tempDewpointWater temp
2015-Aug-31 02:33N 43°16' E 006°38'0 0.0
2015-Aug-31 01:33N 43°16' E 006°38'0 0.0
2015-Aug-31 00:33N 43°16' E 006°38'0 0.0
2015-Aug-30 23:31N 43°16' E 006°38'0 0.0
2015-Aug-30 22:33N 43°16' E 006°38'0 0.0
2015-Aug-30 21:33N 43°16' E 006°38'0 0.0
2015-Aug-30 20:33N 43°16' E 006°38'0 0.0
2015-Aug-30 19:33N 43°16' E 006°38'0 0.0
2015-Aug-30 18:33N 43°16' E 006°38'0 0.0
2015-Aug-30 17:33N 43°16' E 006°38'0 0.3
2015-Aug-30 16:33N 43°17' E 006°38'3 3.4
2015-Aug-30 15:32N 43°14' E 006°40'0 0.0
2015-Aug-30 14:33N 43°14' E 006°40'0 0.0
2015-Aug-30 13:33N 43°14' E 006°40'0 0.0
2015-Aug-30 12:33N 43°14' E 006°40'0 0.0
2015-Aug-30 11:33N 43°14' E 006°40'3 3.3
2015-Aug-30 10:33N 43°16' E 006°37'0 0.1
2015-Aug-30 09:30N 43°16' E 006°37'0 0.0
2015-Aug-30 08:27N 43°16' E 006°37'0 0.0
2015-Aug-30 07:12N 43°16' E 006°37'0 0.0
2015-Aug-30 06:30N 43°16' E 006°37'0 0.0
2015-Aug-30 05:21N 43°16' E 006°37'0 0.0
2015-Aug-30 04:27N 43°16' E 006°37'0 0.0
2015-Aug-30 01:06N 43°16' E 006°37'0 0.0
2015-Aug-30 00:30N 43°16' E 006°37'0 0.0
2015-Aug-29 23:18N 43°16' E 006°37'0 0.0
2015-Aug-29 22:30N 43°16' E 006°37'0 0.0
2015-Aug-29 21:30N 43°16' E 006°37'0 0.0
2015-Aug-29 20:30N 43°16' E 006°37'0 0.0
2015-Aug-29 19:33N 43°16' E 006°37'0 0.0
2015-Aug-29 18:30N 43°16' E 006°37'0 0.3
2015-Aug-29 17:33N 43°16' E 006°37'1111.1
2015-Aug-29 16:33N 43°22' E 006°51'1412.4
2015-Aug-29 15:28N 43°30' E 007°06'1112.2
2015-Aug-29 14:33N 43°38' E 007°15'4 3.6
2015-Aug-29 13:33N 43°42' E 007°17'1 1.0
2015-Aug-29 12:33N 43°41' E 007°18'1111.4
2015-Aug-29 11:33N 43°31' E 007°08'1111.6
2015-Aug-29 10:33N 43°25' E 006°55'1212.0
2015-Aug-29 09:33N 43°18' E 006°42'3 0.2
2015-Aug-28 17:33N 43°16' E 006°38'2 2.5
2015-Aug-28 16:33N 43°14' E 006°40'0 0.0
2015-Aug-28 15:33N 43°14' E 006°40'0 0.0
2015-Aug-28 14:29N 43°14' E 006°40'0 0.0
2015-Aug-28 13:30N 43°14' E 006°40'0 0.0
2015-Aug-28 12:28N 43°14' E 006°40'0 0.0
2015-Aug-28 11:33N 43°14' E 006°40'0 0.0
2015-Aug-28 10:33N 43°14' E 006°40'5 4.2
2015-Aug-28 09:27N 43°10' E 006°39'7 8.1
2015-Aug-28 08:34N 43°17' E 006°39'0 0.0
2015-Aug-27 17:33N 43°17' E 006°40'3 3.2
2015-Aug-27 16:33N 43°14' E 006°40'0 0.0
2015-Aug-27 15:33N 43°14' E 006°40'0 0.0
2015-Aug-27 14:33N 43°14' E 006°40'0 0.0
2015-Aug-27 13:33N 43°14' E 006°40'0 0.0
2015-Aug-27 12:33N 43°14' E 006°40'0 0.0
2015-Aug-27 11:33N 43°14' E 006°40'0 0.0
2015-Aug-27 10:32N 43°14' E 006°40'0 0.0
2015-Aug-27 09:33N 43°14' E 006°40'4 3.6
2015-Aug-27 08:33N 43°17' E 006°41'3 2.2
2015-Aug-27 07:24N 43°16' E 006°38'0 0.0
2015-Aug-27 06:30N 43°16' E 006°38'0 0.0
2015-Aug-27 05:18N 43°16' E 006°38'0 0.0
2015-Aug-27 04:33N 43°16' E 006°38'0 0.0
2015-Aug-27 03:33N 43°16' E 006°38'0 0.0
2015-Aug-27 02:33N 43°16' E 006°38'0 0.0
2015-Aug-27 01:33N 43°16' E 006°38'0 0.0
2015-Aug-27 00:33N 43°16' E 006°38'0 0.0
2015-Aug-26 23:33N 43°16' E 006°38'0 0.0
2015-Aug-26 22:33N 43°16' E 006°38'0 0.0
2015-Aug-26 21:33N 43°16' E 006°38'0 0.0
2015-Aug-26 20:33N 43°16' E 006°38'0 0.0
2015-Aug-26 19:33N 43°16' E 006°38'0 0.0
2015-Aug-26 18:33N 43°16' E 006°38'0 0.0
2015-Aug-26 17:33N 43°16' E 006°38'0 0.0
2015-Aug-26 16:33N 43°16' E 006°38'4 3.8
2015-Aug-26 15:33N 43°15' E 006°43'2 2.4
2015-Aug-26 14:33N 43°14' E 006°40'0 0.0
2015-Aug-26 13:33N 43°14' E 006°40'0 0.0
2015-Aug-26 12:33N 43°14' E 006°40'0 0.0
2015-Aug-26 11:33N 43°14' E 006°40'0 0.0
2015-Aug-26 10:33N 43°14' E 006°40'1110.8
2015-Aug-26 09:33N 43°22' E 006°50'1212.2
2015-Aug-26 08:33N 43°32' E 007°00'1 1.4
2015-Aug-26 07:31N 43°33' E 007°01'0 0.0
2015-Aug-26 06:25N 43°33' E 007°01'0 0.0
2015-Aug-26 05:31N 43°33' E 007°01'0 0.0
2015-Aug-26 04:25N 43°33' E 007°01'0 0.0
2015-Aug-26 03:31N 43°33' E 007°01'0 0.0
2015-Aug-26 02:31N 43°33' E 007°01'0 0.0
2015-Aug-26 01:13N 43°33' E 007°01'0 0.0
2015-Aug-25 21:31N 43°33' E 007°01'0 0.0
2015-Aug-25 20:13N 43°33' E 007°01'0 0.0
2015-Aug-25 18:13N 43°33' E 007°01'0 0.0
2015-Aug-25 17:25N 43°33' E 007°01'0 0.0
2015-Aug-25 16:31N 43°33' E 007°01'0 0.0
2015-Aug-25 15:31N 43°33' E 007°01'0 0.0
2015-Aug-25 14:33N 43°33' E 007°01'2 1.8
2015-Aug-25 13:33N 43°31' E 007°02'2 1.5
2015-Aug-25 12:27N 43°31' E 007°04'0 0.1
2015-Aug-25 11:27N 43°31' E 007°04'0 0.0
2015-Aug-25 10:33N 43°31' E 007°04'0 0.0
2015-Aug-25 09:27N 43°31' E 007°04'2 2.2
2015-Aug-25 08:33N 43°31' E 007°01'2 2.0
2015-Aug-25 07:22N 43°33' E 007°01'0 0.0
2015-Aug-25 06:28N 43°33' E 007°01'0 0.0
2015-Aug-25 05:28N 43°33' E 007°01'0 0.0
2015-Aug-25 04:28N 43°33' E 007°01'0 0.0
2015-Aug-25 03:28N 43°33' E 007°01'0 0.0
2015-Aug-25 02:28N 43°33' E 007°01'0 0.0
2015-Aug-25 01:28N 43°33' E 007°01'0 0.0
2015-Aug-25 00:28N 43°33' E 007°01'0 0.0
2015-Aug-24 23:28N 43°33' E 007°01'0 0.0
2015-Aug-24 22:22N 43°33' E 007°01'0 0.0
2015-Aug-24 21:28N 43°33' E 007°01'0 0.0
2015-Aug-24 20:28N 43°33' E 007°01'0 0.0
2015-Aug-24 19:23N 43°33' E 007°01'0 0.0
2015-Aug-24 18:28N 43°33' E 007°01'0 0.0
2015-Aug-24 17:31N 43°33' E 007°01'0 0.0
2015-Aug-24 16:10N 43°33' E 007°01'0 0.0
2015-Aug-24 15:28N 43°33' E 007°01'2 1.9
2015-Aug-24 14:22N 43°31' E 007°01'2 1.9
2015-Aug-24 13:32N 43°31' E 007°03'0 0.0
2015-Aug-24 12:14N 43°31' E 007°03'0 0.0
2015-Aug-24 11:32N 43°31' E 007°03'0 0.0
2015-Aug-24 10:26N 43°31' E 007°03'0 0.0
2015-Aug-24 08:20N 43°31' E 007°03'2 2.2
2015-Aug-24 07:32N 43°32' E 007°01'0 0.3
2015-Aug-24 06:13N 43°33' E 007°01'1 2.2
2015-Aug-24 05:33N 43°32' E 006°60'5 5.1
2015-Aug-24 04:33N 43°30' E 007°06'9 9.2
2015-Aug-24 03:33N 43°35' E 007°16'61 9.8
2015-Aug-23 21:18N 44°10' E 008°26'810.1
2015-Aug-23 20:33N 44°10' E 008°36'9 9.0
2015-Aug-23 19:33N 44°08' E 008°49'1211.4
2015-Aug-23 18:32N 44°13' E 009°03'4 0.3
2015-Aug-23 06:33N 44°15' E 009°07'10 9.6
2015-Aug-23 05:33N 44°11' E 008°55'9 9.4
2015-Aug-23 04:33N 44°07' E 008°44'9 9.4
2015-Aug-23 03:33N 44°02' E 008°32'5410.5
2015-Aug-22 22:23N 43°41' E 007°22'1 1.5
2015-Aug-22 21:31N 43°42' E 007°20'0 0.0
2015-Aug-22 20:07N 43°42' E 007°20'0 0.0
2015-Aug-22 16:31N 43°42' E 007°20'2 0.1
2015-Aug-21 10:21N 43°42' E 007°17'17 8.3
2015-Aug-21 08:15N 43°34' E 007°39'1 1.8
2015-Aug-21 07:34N 43°34' E 007°40'10 9.2
2015-Aug-21 06:27N 43°31' E 007°54'  

Dump ship's entire track history